sensor_id;sensor_type;location;lat;lon;timestamp;P1;durP1;ratioP1;P2;durP2;ratioP2
5813;SDS011;2933;52.302;8.134;2023-02-28T00:03:47;6.07;;;4.10;;
5813;SDS011;2933;52.302;8.134;2023-02-28T00:08:48;5.40;;;4.90;;
5813;SDS011;2933;52.302;8.134;2023-02-28T00:13:50;8.10;;;4.60;;
5813;SDS011;2933;52.302;8.134;2023-02-28T00:18:53;7.50;;;3.77;;
5813;SDS011;2933;52.302;8.134;2023-02-28T00:23:54;4.53;;;3.80;;
5813;SDS011;2933;52.302;8.134;2023-02-28T00:28:56;4.30;;;3.90;;
5813;SDS011;2933;52.302;8.134;2023-02-28T00:33:59;8.83;;;4.50;;
5813;SDS011;2933;52.302;8.134;2023-02-28T00:39:00;6.67;;;3.60;;
5813;SDS011;2933;52.302;8.134;2023-02-28T00:44:02;7.23;;;4.50;;
5813;SDS011;2933;52.302;8.134;2023-02-28T00:49:05;4.30;;;3.90;;
5813;SDS011;2933;52.302;8.134;2023-02-28T00:54:07;7.00;;;4.43;;
5813;SDS011;2933;52.302;8.134;2023-02-28T00:59:09;9.47;;;4.50;;
5813;SDS011;2933;52.302;8.134;2023-02-28T01:04:12;4.60;;;3.70;;
5813;SDS011;2933;52.302;8.134;2023-02-28T01:09:14;4.70;;;3.90;;
5813;SDS011;2933;52.302;8.134;2023-02-28T01:14:17;9.73;;;3.97;;
5813;SDS011;2933;52.302;8.134;2023-02-28T01:19:20;7.30;;;4.73;;
5813;SDS011;2933;52.302;8.134;2023-02-28T01:24:22;4.97;;;4.17;;
5813;SDS011;2933;52.302;8.134;2023-02-28T01:29:23;5.13;;;3.80;;
5813;SDS011;2933;52.302;8.134;2023-02-28T01:34:26;5.50;;;4.60;;
5813;SDS011;2933;52.302;8.134;2023-02-28T01:39:28;5.53;;;4.53;;
5813;SDS011;2933;52.302;8.134;2023-02-28T01:50:07;6.97;;;4.47;;
5813;SDS011;2933;52.302;8.134;2023-02-28T01:55:13;5.33;;;4.30;;
5813;SDS011;2933;52.302;8.134;2023-02-28T02:00:18;7.00;;;4.47;;
5813;SDS011;2933;52.302;8.134;2023-02-28T02:05:25;7.57;;;4.40;;
5813;SDS011;2933;52.302;8.134;2023-02-28T02:10:32;5.23;;;4.20;;
5813;SDS011;2933;52.302;8.134;2023-02-28T02:15:38;4.87;;;4.17;;
5813;SDS011;2933;52.302;8.134;2023-02-28T02:20:54;6.60;;;5.30;;
5813;SDS011;2933;52.302;8.134;2023-02-28T02:26:18;7.90;;;4.50;;
5813;SDS011;2933;52.302;8.134;2023-02-28T02:31:43;4.97;;;4.57;;
5813;SDS011;2933;52.302;8.134;2023-02-28T02:37:00;6.20;;;4.37;;
5813;SDS011;2933;52.302;8.134;2023-02-28T02:42:11;4.30;;;4.00;;
5813;SDS011;2933;52.302;8.134;2023-02-28T02:47:17;5.33;;;4.57;;
5813;SDS011;2933;52.302;8.134;2023-02-28T02:52:27;9.10;;;4.23;;
5813;SDS011;2933;52.302;8.134;2023-02-28T02:57:36;5.60;;;4.40;;
5813;SDS011;2933;52.302;8.134;2023-02-28T03:02:41;7.13;;;4.63;;
5813;SDS011;2933;52.302;8.134;2023-02-28T03:07:47;6.67;;;3.90;;
5813;SDS011;2933;52.302;8.134;2023-02-28T03:12:49;4.33;;;3.83;;
5813;SDS011;2933;52.302;8.134;2023-02-28T03:18:02;4.70;;;3.70;;
5813;SDS011;2933;52.302;8.134;2023-02-28T03:23:13;6.80;;;4.10;;
5813;SDS011;2933;52.302;8.134;2023-02-28T03:28:19;5.70;;;4.40;;
5813;SDS011;2933;52.302;8.134;2023-02-28T03:33:30;5.00;;;3.87;;
5813;SDS011;2933;52.302;8.134;2023-02-28T03:38:37;4.40;;;3.37;;
5813;SDS011;2933;52.302;8.134;2023-02-28T03:43:44;6.77;;;4.17;;
5813;SDS011;2933;52.302;8.134;2023-02-28T03:48:53;4.67;;;4.17;;
5813;SDS011;2933;52.302;8.134;2023-02-28T03:54:02;4.87;;;4.37;;
5813;SDS011;2933;52.302;8.134;2023-02-28T03:59:10;5.97;;;3.83;;
5813;SDS011;2933;52.302;8.134;2023-02-28T04:04:16;4.27;;;3.90;;
5813;SDS011;2933;52.302;8.134;2023-02-28T04:09:19;4.70;;;4.20;;
5813;SDS011;2933;52.302;8.134;2023-02-28T04:14:21;4.00;;;3.70;;
5813;SDS011;2933;52.302;8.134;2023-02-28T04:19:23;4.00;;;3.60;;
5813;SDS011;2933;52.302;8.134;2023-02-28T04:24:26;10.80;;;4.17;;
5813;SDS011;2933;52.302;8.134;2023-02-28T04:29:29;3.63;;;3.00;;
5813;SDS011;2933;52.302;8.134;2023-02-28T04:34:32;4.27;;;3.97;;
5813;SDS011;2933;52.302;8.134;2023-02-28T04:39:36;4.47;;;4.00;;
5813;SDS011;2933;52.302;8.134;2023-02-28T04:44:37;6.03;;;3.90;;
5813;SDS011;2933;52.302;8.134;2023-02-28T04:49:39;4.43;;;3.77;;
5813;SDS011;2933;52.302;8.134;2023-02-28T04:54:42;3.70;;;3.40;;
5813;SDS011;2933;52.302;8.134;2023-02-28T04:59:44;4.33;;;3.60;;
5813;SDS011;2933;52.302;8.134;2023-02-28T05:04:46;5.63;;;3.70;;
5813;SDS011;2933;52.302;8.134;2023-02-28T05:09:49;4.10;;;3.70;;
5813;SDS011;2933;52.302;8.134;2023-02-28T05:14:50;5.13;;;3.30;;
5813;SDS011;2933;52.302;8.134;2023-02-28T05:19:52;8.60;;;3.70;;
5813;SDS011;2933;52.302;8.134;2023-02-28T05:24:55;7.87;;;4.00;;
5813;SDS011;2933;52.302;8.134;2023-02-28T05:29:56;5.07;;;2.93;;
5813;SDS011;2933;52.302;8.134;2023-02-28T05:34:59;7.83;;;3.40;;
5813;SDS011;2933;52.302;8.134;2023-02-28T05:40:02;3.90;;;3.60;;
5813;SDS011;2933;52.302;8.134;2023-02-28T05:45:07;5.10;;;3.50;;
5813;SDS011;2933;52.302;8.134;2023-02-28T05:50:09;3.20;;;3.00;;
5813;SDS011;2933;52.302;8.134;2023-02-28T05:55:13;3.77;;;3.13;;
5813;SDS011;2933;52.302;8.134;2023-02-28T06:00:15;3.50;;;3.20;;
5813;SDS011;2933;52.302;8.134;2023-02-28T06:05:18;5.60;;;3.37;;
5813;SDS011;2933;52.302;8.134;2023-02-28T06:10:21;6.70;;;3.87;;
5813;SDS011;2933;52.302;8.134;2023-02-28T06:15:22;3.47;;;3.13;;
5813;SDS011;2933;52.302;8.134;2023-02-28T06:20:24;3.27;;;3.07;;
5813;SDS011;2933;52.302;8.134;2023-02-28T06:25:30;4.93;;;4.13;;
5813;SDS011;2933;52.302;8.134;2023-02-28T06:30:32;4.00;;;3.60;;
5813;SDS011;2933;52.302;8.134;2023-02-28T06:35:33;3.37;;;3.17;;
5813;SDS011;2933;52.302;8.134;2023-02-28T06:40:36;4.03;;;3.43;;
5813;SDS011;2933;52.302;8.134;2023-02-28T06:45:41;6.10;;;3.53;;
5813;SDS011;2933;52.302;8.134;2023-02-28T06:50:43;7.10;;;3.67;;
5813;SDS011;2933;52.302;8.134;2023-02-28T06:55:46;3.60;;;3.40;;
5813;SDS011;2933;52.302;8.134;2023-02-28T07:00:50;6.23;;;3.57;;
5813;SDS011;2933;52.302;8.134;2023-02-28T07:05:52;4.83;;;3.73;;
5813;SDS011;2933;52.302;8.134;2023-02-28T07:10:57;10.80;;;3.13;;
5813;SDS011;2933;52.302;8.134;2023-02-28T07:16:00;4.67;;;3.67;;
5813;SDS011;2933;52.302;8.134;2023-02-28T07:21:04;5.23;;;4.53;;
5813;SDS011;2933;52.302;8.134;2023-02-28T07:26:10;4.63;;;3.87;;
5813;SDS011;2933;52.302;8.134;2023-02-28T07:31:14;4.20;;;3.80;;
5813;SDS011;2933;52.302;8.134;2023-02-28T07:36:17;4.17;;;3.33;;
5813;SDS011;2933;52.302;8.134;2023-02-28T07:41:21;7.73;;;4.20;;
5813;SDS011;2933;52.302;8.134;2023-02-28T07:46:27;9.33;;;4.80;;
5813;SDS011;2933;52.302;8.134;2023-02-28T07:51:35;6.97;;;4.27;;
5813;SDS011;2933;52.302;8.134;2023-02-28T07:56:37;6.20;;;4.23;;
5813;SDS011;2933;52.302;8.134;2023-02-28T08:01:39;5.37;;;4.60;;
5813;SDS011;2933;52.302;8.134;2023-02-28T08:06:41;8.90;;;5.00;;
5813;SDS011;2933;52.302;8.134;2023-02-28T08:11:44;6.20;;;4.70;;
5813;SDS011;2933;52.302;8.134;2023-02-28T08:16:45;7.63;;;4.60;;
5813;SDS011;2933;52.302;8.134;2023-02-28T08:21:47;10.30;;;5.03;;
5813;SDS011;2933;52.302;8.134;2023-02-28T08:26:50;6.50;;;4.10;;
5813;SDS011;2933;52.302;8.134;2023-02-28T08:31:51;14.40;;;6.20;;
5813;SDS011;2933;52.302;8.134;2023-02-28T08:36:53;13.23;;;6.40;;
5813;SDS011;2933;52.302;8.134;2023-02-28T08:41:56;16.53;;;5.93;;
5813;SDS011;2933;52.302;8.134;2023-02-28T08:46:57;8.90;;;6.13;;
5813;SDS011;2933;52.302;8.134;2023-02-28T08:51:59;6.53;;;5.40;;
5813;SDS011;2933;52.302;8.134;2023-02-28T08:57:02;5.53;;;4.83;;
5813;SDS011;2933;52.302;8.134;2023-02-28T09:02:04;4.20;;;3.90;;
5813;SDS011;2933;52.302;8.134;2023-02-28T09:07:06;5.03;;;2.60;;
5813;SDS011;2933;52.302;8.134;2023-02-28T09:12:09;1.87;;;1.77;;
5813;SDS011;2933;52.302;8.134;2023-02-28T09:17:11;3.80;;;1.83;;
5813;SDS011;2933;52.302;8.134;2023-02-28T09:22:12;2.23;;;2.13;;
5813;SDS011;2933;52.302;8.134;2023-02-28T09:27:15;2.23;;;2.07;;
5813;SDS011;2933;52.302;8.134;2023-02-28T09:32:18;1.90;;;1.80;;
5813;SDS011;2933;52.302;8.134;2023-02-28T09:37:19;2.77;;;2.20;;
5813;SDS011;2933;52.302;8.134;2023-02-28T09:42:25;1.53;;;1.37;;
5813;SDS011;2933;52.302;8.134;2023-02-28T09:47:32;1.87;;;1.73;;
5813;SDS011;2933;52.302;8.134;2023-02-28T09:52:37;1.60;;;1.40;;
5813;SDS011;2933;52.302;8.134;2023-02-28T09:57:40;2.10;;;1.30;;
5813;SDS011;2933;52.302;8.134;2023-02-28T10:02:50;1.50;;;1.40;;
5813;SDS011;2933;52.302;8.134;2023-02-28T10:08:00;1.00;;;0.90;;
5813;SDS011;2933;52.302;8.134;2023-02-28T10:13:14;1.00;;;1.00;;
5813;SDS011;2933;52.302;8.134;2023-02-28T10:18:21;1.37;;;1.20;;
5813;SDS011;2933;52.302;8.134;2023-02-28T10:23:27;1.80;;;1.43;;
5813;SDS011;2933;52.302;8.134;2023-02-28T10:28:33;1.03;;;0.93;;
5813;SDS011;2933;52.302;8.134;2023-02-28T10:33:35;1.50;;;1.40;;
5813;SDS011;2933;52.302;8.134;2023-02-28T10:38:37;1.20;;;1.10;;
5813;SDS011;2933;52.302;8.134;2023-02-28T10:43:42;1.30;;;1.30;;
5813;SDS011;2933;52.302;8.134;2023-02-28T10:48:45;1.00;;;0.90;;
5813;SDS011;2933;52.302;8.134;2023-02-28T10:53:51;1.00;;;1.00;;
5813;SDS011;2933;52.302;8.134;2023-02-28T10:58:56;1.53;;;0.87;;
5813;SDS011;2933;52.302;8.134;2023-02-28T11:03:58;1.07;;;0.83;;
5813;SDS011;2933;52.302;8.134;2023-02-28T11:09:02;0.77;;;0.77;;
5813;SDS011;2933;52.302;8.134;2023-02-28T11:14:16;1.47;;;1.37;;
5813;SDS011;2933;52.302;8.134;2023-02-28T11:19:23;1.50;;;1.40;;
5813;SDS011;2933;52.302;8.134;2023-02-28T11:24:28;2.77;;;1.33;;
5813;SDS011;2933;52.302;8.134;2023-02-28T11:29:34;1.77;;;1.47;;
5813;SDS011;2933;52.302;8.134;2023-02-28T11:34:59;0.90;;;0.90;;
5813;SDS011;2933;52.302;8.134;2023-02-28T11:40:05;1.53;;;1.43;;
5813;SDS011;2933;52.302;8.134;2023-02-28T11:45:39;5.30;;;1.70;;
5813;SDS011;2933;52.302;8.134;2023-02-28T11:50:49;1.80;;;1.70;;
5813;SDS011;2933;52.302;8.134;2023-02-28T11:55:59;1.83;;;1.60;;
5813;SDS011;2933;52.302;8.134;2023-02-28T12:01:35;1.13;;;1.13;;
5813;SDS011;2933;52.302;8.134;2023-02-28T12:06:45;2.20;;;1.30;;
5813;SDS011;2933;52.302;8.134;2023-02-28T12:11:54;1.30;;;1.20;;
5813;SDS011;2933;52.302;8.134;2023-02-28T12:17:05;1.87;;;1.43;;
5813;SDS011;2933;52.302;8.134;2023-02-28T12:22:27;1.40;;;1.30;;
5813;SDS011;2933;52.302;8.134;2023-02-28T12:27:31;2.30;;;1.57;;
5813;SDS011;2933;52.302;8.134;2023-02-28T12:32:40;1.97;;;1.47;;
5813;SDS011;2933;52.302;8.134;2023-02-28T12:37:44;2.90;;;2.70;;
5813;SDS011;2933;52.302;8.134;2023-02-28T12:42:51;3.83;;;1.67;;
5813;SDS011;2933;52.302;8.134;2023-02-28T12:47:59;1.63;;;1.53;;
5813;SDS011;2933;52.302;8.134;2023-02-28T12:53:06;2.53;;;1.60;;
5813;SDS011;2933;52.302;8.134;2023-02-28T12:58:12;2.13;;;1.53;;
5813;SDS011;2933;52.302;8.134;2023-02-28T13:03:24;1.70;;;1.60;;
5813;SDS011;2933;52.302;8.134;2023-02-28T13:08:50;1.90;;;1.80;;
5813;SDS011;2933;52.302;8.134;2023-02-28T13:14:06;4.80;;;1.80;;
5813;SDS011;2933;52.302;8.134;2023-02-28T13:19:21;1.80;;;1.70;;
5813;SDS011;2933;52.302;8.134;2023-02-28T13:24:38;1.37;;;1.37;;
5813;SDS011;2933;52.302;8.134;2023-02-28T13:29:43;1.67;;;1.57;;
5813;SDS011;2933;52.302;8.134;2023-02-28T13:35:11;2.07;;;1.63;;
5813;SDS011;2933;52.302;8.134;2023-02-28T13:40:39;2.10;;;2.00;;
5813;SDS011;2933;52.302;8.134;2023-02-28T13:45:44;1.70;;;1.60;;
5813;SDS011;2933;52.302;8.134;2023-02-28T13:56:44;1.70;;;1.60;;
5813;SDS011;2933;52.302;8.134;2023-02-28T14:07:31;3.57;;;1.50;;
5813;SDS011;2933;52.302;8.134;2023-02-28T14:12:56;1.53;;;1.53;;
5813;SDS011;2933;52.302;8.134;2023-02-28T14:18:03;1.70;;;1.37;;
5813;SDS011;2933;52.302;8.134;2023-02-28T14:23:14;2.20;;;1.70;;
5813;SDS011;2933;52.302;8.134;2023-02-28T14:28:24;3.00;;;1.60;;
5813;SDS011;2933;52.302;8.134;2023-02-28T14:33:47;5.50;;;1.60;;
5813;SDS011;2933;52.302;8.134;2023-02-28T14:44:56;2.03;;;1.70;;
5813;SDS011;2933;52.302;8.134;2023-02-28T14:49:58;2.00;;;1.90;;
5813;SDS011;2933;52.302;8.134;2023-02-28T14:55:03;2.20;;;2.10;;
5813;SDS011;2933;52.302;8.134;2023-02-28T15:00:12;1.93;;;1.83;;
5813;SDS011;2933;52.302;8.134;2023-02-28T15:05:24;3.10;;;1.67;;
5813;SDS011;2933;52.302;8.134;2023-02-28T15:10:27;1.73;;;1.63;;
5813;SDS011;2933;52.302;8.134;2023-02-28T15:15:39;2.30;;;2.20;;
5813;SDS011;2933;52.302;8.134;2023-02-28T15:20:43;2.50;;;2.40;;
5813;SDS011;2933;52.302;8.134;2023-02-28T15:25:46;2.30;;;2.10;;
5813;SDS011;2933;52.302;8.134;2023-02-28T15:30:57;2.60;;;1.93;;
5813;SDS011;2933;52.302;8.134;2023-02-28T15:36:03;2.10;;;2.00;;
5813;SDS011;2933;52.302;8.134;2023-02-28T15:41:20;2.97;;;1.80;;
5813;SDS011;2933;52.302;8.134;2023-02-28T15:46:26;2.00;;;1.90;;
5813;SDS011;2933;52.302;8.134;2023-02-28T15:51:29;2.47;;;2.33;;
5813;SDS011;2933;52.302;8.134;2023-02-28T15:56:35;2.07;;;1.77;;
5813;SDS011;2933;52.302;8.134;2023-02-28T16:01:41;1.73;;;1.63;;
5813;SDS011;2933;52.302;8.134;2023-02-28T16:06:43;3.97;;;2.00;;
5813;SDS011;2933;52.302;8.134;2023-02-28T16:11:46;3.27;;;1.90;;
5813;SDS011;2933;52.302;8.134;2023-02-28T16:16:51;1.70;;;1.60;;
5813;SDS011;2933;52.302;8.134;2023-02-28T16:21:54;2.77;;;1.67;;
5813;SDS011;2933;52.302;8.134;2023-02-28T16:26:56;5.70;;;2.10;;
5813;SDS011;2933;52.302;8.134;2023-02-28T16:32:00;2.20;;;2.00;;
5813;SDS011;2933;52.302;8.134;2023-02-28T16:37:04;1.90;;;1.70;;
5813;SDS011;2933;52.302;8.134;2023-02-28T16:42:06;1.47;;;1.37;;
5813;SDS011;2933;52.302;8.134;2023-02-28T16:47:10;1.30;;;1.20;;
5813;SDS011;2933;52.302;8.134;2023-02-28T16:52:12;1.53;;;1.43;;
5813;SDS011;2933;52.302;8.134;2023-02-28T16:57:17;1.80;;;1.70;;
5813;SDS011;2933;52.302;8.134;2023-02-28T17:02:22;1.50;;;1.37;;
5813;SDS011;2933;52.302;8.134;2023-02-28T17:07:24;1.70;;;1.60;;
5813;SDS011;2933;52.302;8.134;2023-02-28T17:12:26;1.77;;;1.67;;
5813;SDS011;2933;52.302;8.134;2023-02-28T17:17:28;1.73;;;1.63;;
5813;SDS011;2933;52.302;8.134;2023-02-28T17:22:31;2.40;;;2.30;;
5813;SDS011;2933;52.302;8.134;2023-02-28T17:27:32;1.97;;;1.87;;
5813;SDS011;2933;52.302;8.134;2023-02-28T17:32:35;1.50;;;1.50;;
5813;SDS011;2933;52.302;8.134;2023-02-28T17:37:37;1.90;;;1.80;;
5813;SDS011;2933;52.302;8.134;2023-02-28T17:42:38;1.53;;;1.53;;
5813;SDS011;2933;52.302;8.134;2023-02-28T17:47:42;2.20;;;2.10;;
5813;SDS011;2933;52.302;8.134;2023-02-28T17:52:46;2.60;;;2.40;;
5813;SDS011;2933;52.302;8.134;2023-02-28T17:57:48;4.43;;;2.77;;
5813;SDS011;2933;52.302;8.134;2023-02-28T18:02:51;2.50;;;2.30;;
5813;SDS011;2933;52.302;8.134;2023-02-28T18:07:54;3.33;;;2.33;;
5813;SDS011;2933;52.302;8.134;2023-02-28T18:12:56;3.47;;;2.93;;
5813;SDS011;2933;52.302;8.134;2023-02-28T18:17:58;5.80;;;3.57;;
5813;SDS011;2933;52.302;8.134;2023-02-28T18:23:00;2.93;;;2.70;;
5813;SDS011;2933;52.302;8.134;2023-02-28T18:28:03;4.13;;;2.20;;
5813;SDS011;2933;52.302;8.134;2023-02-28T18:33:06;2.53;;;2.43;;
5813;SDS011;2933;52.302;8.134;2023-02-28T18:38:08;2.97;;;2.47;;
5813;SDS011;2933;52.302;8.134;2023-02-28T18:43:13;2.57;;;2.40;;
5813;SDS011;2933;52.302;8.134;2023-02-28T18:48:16;3.13;;;2.50;;
5813;SDS011;2933;52.302;8.134;2023-02-28T18:53:19;2.37;;;1.90;;
5813;SDS011;2933;52.302;8.134;2023-02-28T18:58:21;3.27;;;2.40;;
5813;SDS011;2933;52.302;8.134;2023-02-28T19:03:23;2.13;;;2.03;;
5813;SDS011;2933;52.302;8.134;2023-02-28T19:08:25;6.50;;;2.20;;
5813;SDS011;2933;52.302;8.134;2023-02-28T19:13:27;2.67;;;2.47;;
5813;SDS011;2933;52.302;8.134;2023-02-28T19:18:31;2.60;;;2.50;;
5813;SDS011;2933;52.302;8.134;2023-02-28T19:23:33;3.83;;;2.60;;
5813;SDS011;2933;52.302;8.134;2023-02-28T19:28:35;3.83;;;2.90;;
5813;SDS011;2933;52.302;8.134;2023-02-28T19:33:39;6.63;;;3.60;;
5813;SDS011;2933;52.302;8.134;2023-02-28T19:38:41;6.23;;;4.63;;
5813;SDS011;2933;52.302;8.134;2023-02-28T19:43:43;5.30;;;4.13;;
5813;SDS011;2933;52.302;8.134;2023-02-28T19:48:46;8.33;;;3.70;;
5813;SDS011;2933;52.302;8.134;2023-02-28T19:53:48;3.80;;;2.80;;
5813;SDS011;2933;52.302;8.134;2023-02-28T19:58:50;2.80;;;2.60;;
5813;SDS011;2933;52.302;8.134;2023-02-28T20:03:53;2.67;;;2.50;;
5813;SDS011;2933;52.302;8.134;2023-02-28T20:08:54;3.03;;;2.80;;
5813;SDS011;2933;52.302;8.134;2023-02-28T20:13:56;2.73;;;2.53;;
5813;SDS011;2933;52.302;8.134;2023-02-28T20:18:59;3.40;;;2.80;;
5813;SDS011;2933;52.302;8.134;2023-02-28T20:24:01;4.97;;;3.50;;
5813;SDS011;2933;52.302;8.134;2023-02-28T20:29:03;3.00;;;2.80;;
5813;SDS011;2933;52.302;8.134;2023-02-28T20:34:06;3.07;;;2.77;;
5813;SDS011;2933;52.302;8.134;2023-02-28T20:39:08;3.67;;;3.37;;
5813;SDS011;2933;52.302;8.134;2023-02-28T20:44:10;4.50;;;3.70;;
5813;SDS011;2933;52.302;8.134;2023-02-28T20:49:14;3.70;;;3.40;;
5813;SDS011;2933;52.302;8.134;2023-02-28T20:54:16;3.80;;;3.50;;
5813;SDS011;2933;52.302;8.134;2023-02-28T20:59:18;5.53;;;3.60;;
5813;SDS011;2933;52.302;8.134;2023-02-28T21:04:22;4.00;;;2.80;;
5813;SDS011;2933;52.302;8.134;2023-02-28T21:09:24;3.73;;;3.33;;
5813;SDS011;2933;52.302;8.134;2023-02-28T21:14:26;6.40;;;4.30;;
5813;SDS011;2933;52.302;8.134;2023-02-28T21:19:29;5.60;;;3.70;;
5813;SDS011;2933;52.302;8.134;2023-02-28T21:24:31;6.33;;;3.63;;
5813;SDS011;2933;52.302;8.134;2023-02-28T21:29:33;3.20;;;3.00;;
5813;SDS011;2933;52.302;8.134;2023-02-28T21:34:36;3.87;;;3.50;;
5813;SDS011;2933;52.302;8.134;2023-02-28T21:39:38;7.23;;;3.63;;
5813;SDS011;2933;52.302;8.134;2023-02-28T21:44:39;3.40;;;3.10;;
5813;SDS011;2933;52.302;8.134;2023-02-28T21:49:42;4.50;;;3.90;;
5813;SDS011;2933;52.302;8.134;2023-02-28T21:54:44;6.37;;;3.07;;
5813;SDS011;2933;52.302;8.134;2023-02-28T21:59:45;6.00;;;3.20;;
5813;SDS011;2933;52.302;8.134;2023-02-28T22:04:48;6.47;;;3.57;;
5813;SDS011;2933;52.302;8.134;2023-02-28T22:09:50;4.73;;;3.60;;
5813;SDS011;2933;52.302;8.134;2023-02-28T22:14:52;4.17;;;3.77;;
5813;SDS011;2933;52.302;8.134;2023-02-28T22:19:54;11.13;;;3.80;;
5813;SDS011;2933;52.302;8.134;2023-02-28T22:24:56;7.90;;;4.80;;
5813;SDS011;2933;52.302;8.134;2023-02-28T22:29:58;7.23;;;4.30;;
5813;SDS011;2933;52.302;8.134;2023-02-28T22:35:01;8.23;;;3.50;;
5813;SDS011;2933;52.302;8.134;2023-02-28T22:40:02;4.60;;;3.80;;
5813;SDS011;2933;52.302;8.134;2023-02-28T22:45:05;6.60;;;3.70;;
5813;SDS011;2933;52.302;8.134;2023-02-28T22:50:09;5.87;;;3.60;;
5813;SDS011;2933;52.302;8.134;2023-02-28T22:55:12;3.80;;;3.50;;
5813;SDS011;2933;52.302;8.134;2023-02-28T23:00:14;4.13;;;3.77;;
5813;SDS011;2933;52.302;8.134;2023-02-28T23:05:17;5.63;;;3.87;;
5813;SDS011;2933;52.302;8.134;2023-02-28T23:10:19;3.47;;;3.20;;
5813;SDS011;2933;52.302;8.134;2023-02-28T23:15:21;4.00;;;3.60;;
5813;SDS011;2933;52.302;8.134;2023-02-28T23:20:24;4.73;;;3.80;;
5813;SDS011;2933;52.302;8.134;2023-02-28T23:25:26;4.43;;;3.93;;
5813;SDS011;2933;52.302;8.134;2023-02-28T23:30:27;6.17;;;3.97;;
5813;SDS011;2933;52.302;8.134;2023-02-28T23:35:31;7.90;;;3.90;;
5813;SDS011;2933;52.302;8.134;2023-02-28T23:40:33;4.77;;;4.30;;
5813;SDS011;2933;52.302;8.134;2023-02-28T23:45:35;3.77;;;3.37;;
5813;SDS011;2933;52.302;8.134;2023-02-28T23:50:38;3.30;;;3.00;;
5813;SDS011;2933;52.302;8.134;2023-02-28T23:55:43;3.90;;;3.50;;
